createdAt,value
2018-07-14T00:00:05.837Z,91
2018-07-14T00:05:06.687Z,91
2018-07-14T00:10:06.125Z,91
2018-07-14T00:15:06.237Z,91
2018-07-14T00:20:05.983Z,91
2018-07-14T00:25:06.672Z,91
2018-07-14T00:30:06.408Z,91
2018-07-14T00:35:06.082Z,91
2018-07-14T00:40:06.800Z,91
2018-07-14T00:45:06.519Z,91
2018-07-14T00:50:06.242Z,91
2018-07-14T00:55:05.897Z,91
2018-07-14T01:00:06.515Z,91
2018-07-14T01:05:06.777Z,91
2018-07-14T01:10:06.118Z,91
2018-07-14T01:15:06.074Z,92
2018-07-14T01:20:06.766Z,92
2018-07-14T01:25:05.849Z,92
2018-07-14T01:30:06.466Z,92
2018-07-14T01:35:06.415Z,92
2018-07-14T01:40:06.024Z,92
2018-07-14T01:45:06.688Z,92
2018-07-14T01:50:06.409Z,92
2018-07-14T01:55:06.035Z,92
2018-07-14T02:00:06.623Z,92
2018-07-14T02:05:06.198Z,92
2018-07-14T02:10:06.201Z,92
2018-07-14T02:15:06.352Z,92
2018-07-14T02:20:06.371Z,92
2018-07-14T02:25:05.973Z,92
2018-07-14T02:30:06.581Z,92
2018-07-14T02:35:06.245Z,92
2018-07-14T02:40:06.949Z,92
2018-07-14T02:45:06.476Z,92
2018-07-14T02:50:06.198Z,92
2018-07-14T02:55:06.740Z,92
2018-07-14T03:00:06.326Z,92
2018-07-14T03:05:06.450Z,92
2018-07-14T03:10:06.410Z,92
2018-07-14T03:15:06.875Z,92
2018-07-14T03:20:06.523Z,92
2018-07-14T03:25:06.053Z,93
2018-07-14T03:30:06.551Z,93
2018-07-14T03:35:06.226Z,93
2018-07-14T03:40:06.846Z,93
2018-07-14T03:45:06.338Z,94
2018-07-14T03:50:06.978Z,94
2018-07-14T03:55:06.598Z,94
2018-07-14T04:00:06.236Z,94
2018-07-14T04:05:06.893Z,95
2018-07-14T04:10:06.609Z,95
2018-07-14T04:15:06.204Z,95
2018-07-14T04:20:06.974Z,95
2018-07-14T04:25:06.705Z,95
2018-07-14T04:30:06.642Z,95
2018-07-14T04:35:06.834Z,95
2018-07-14T04:40:06.354Z,95
2018-07-14T04:45:07.017Z,96
2018-07-14T04:50:06.611Z,96
2018-07-14T04:55:06.826Z,96
2018-07-14T05:00:06.423Z,96
2018-07-14T05:05:06.282Z,96
2018-07-14T05:10:06.597Z,96
2018-07-14T05:15:06.117Z,96
2018-07-14T05:20:06.663Z,96
2018-07-14T05:25:06.216Z,96
2018-07-14T05:30:06.760Z,96
2018-07-14T05:35:06.324Z,95
2018-07-14T05:40:06.899Z,95
2018-07-14T05:45:06.089Z,95
2018-07-14T05:50:06.612Z,95
2018-07-14T05:55:06.201Z,95
2018-07-14T06:00:06.674Z,95
2018-07-14T06:05:06.185Z,95
2018-07-14T06:10:06.701Z,95
2018-07-14T06:15:06.205Z,94
2018-07-14T06:20:06.686Z,94
2018-07-14T06:25:06.501Z,94
2018-07-14T06:30:07.041Z,94
2018-07-14T06:35:06.863Z,94
2018-07-14T06:40:06.438Z,94
2018-07-14T06:45:06.998Z,93
2018-07-14T06:50:06.729Z,93
2018-07-14T06:55:06.801Z,92
2018-07-14T07:00:06.464Z,92
2018-07-14T07:05:06.511Z,91
2018-07-14T07:10:07.134Z,91
2018-07-14T07:15:06.735Z,90
2018-07-14T07:20:06.311Z,90
2018-07-14T07:25:06.771Z,89
2018-07-14T07:30:06.402Z,89
2018-07-14T07:35:06.905Z,86
2018-07-14T07:40:06.503Z,86
2018-07-14T07:45:07.068Z,84
2018-07-14T07:50:06.698Z,84
2018-07-14T07:55:07.211Z,83
2018-07-14T08:00:06.775Z,83
2018-07-14T08:05:06.861Z,81
2018-07-14T08:10:07.261Z,81
2018-07-14T08:15:11.817Z,81
2018-07-14T08:20:06.291Z,81
2018-07-14T08:25:06.786Z,80
2018-07-14T08:30:06.253Z,80
2018-07-14T08:35:06.922Z,80
2018-07-14T08:40:06.628Z,80
2018-07-14T08:45:07.175Z,80
2018-07-14T08:50:06.727Z,80
2018-07-14T08:55:06.437Z,79
2018-07-14T09:00:06.973Z,79
2018-07-14T09:05:06.591Z,80
2018-07-14T09:10:06.830Z,80
2018-07-14T09:15:06.528Z,79
2018-07-14T09:20:07.299Z,79
2018-07-14T09:25:06.812Z,79
2018-07-14T09:30:06.423Z,79
2018-07-14T09:35:06.972Z,78
2018-07-14T09:40:06.621Z,78
2018-07-14T09:45:07.112Z,77
2018-07-14T09:50:06.642Z,77
2018-07-14T09:55:07.253Z,77
2018-07-14T10:00:06.812Z,77
2018-07-14T10:05:07.383Z,75
2018-07-14T10:10:06.712Z,75
2018-07-14T10:15:07.337Z,76
2018-07-14T10:20:06.915Z,76
2018-07-14T10:25:07.415Z,77
2018-07-14T10:30:07.038Z,77
2018-07-14T10:35:06.674Z,77
2018-07-14T10:40:07.107Z,77
2018-07-14T10:45:06.682Z,77
2018-07-14T10:50:07.396Z,77
2018-07-14T10:55:07.252Z,77
2018-07-14T11:00:06.810Z,77
2018-07-14T11:05:06.562Z,75
2018-07-14T11:10:06.837Z,75
2018-07-14T11:15:07.419Z,73
2018-07-14T11:20:07.261Z,73
2018-07-14T11:25:06.948Z,74
2018-07-14T11:30:07.535Z,74
2018-07-14T11:35:06.654Z,72
2018-07-14T11:40:07.206Z,72
2018-07-14T11:45:06.729Z,73
2018-07-14T11:50:07.287Z,73
2018-07-14T11:55:07.197Z,70
2018-07-14T12:00:07.214Z,70
2018-07-14T12:05:06.789Z,71
2018-07-14T12:10:06.605Z,71
2018-07-14T12:15:07.296Z,68
2018-07-14T12:20:06.949Z,68
2018-07-14T12:25:07.484Z,67
2018-07-14T12:30:07.123Z,67
2018-07-14T12:35:07.504Z,66
2018-07-14T12:40:07.308Z,66
2018-07-14T12:45:06.827Z,65
2018-07-14T12:50:07.485Z,65
2018-07-14T12:55:07.332Z,67
2018-07-14T13:00:07.005Z,67
2018-07-14T13:05:07.608Z,68
2018-07-14T13:10:07.111Z,68
2018-07-14T13:15:06.681Z,69
2018-07-14T13:20:07.332Z,69
2018-07-14T13:25:06.795Z,69
2018-07-14T13:30:07.470Z,69
2018-07-14T13:35:07.662Z,70
2018-07-14T13:40:07.343Z,70
2018-07-14T13:45:06.901Z,72
2018-07-14T13:50:07.530Z,72
2018-07-14T13:55:07.109Z,70
2018-07-14T14:00:06.729Z,70
2018-07-14T14:05:07.136Z,72
2018-07-14T14:10:06.789Z,72
2018-07-14T14:15:07.039Z,72
2018-07-14T14:20:07.638Z,72
2018-07-14T14:25:07.245Z,73
2018-07-14T14:30:06.789Z,73
2018-07-14T14:35:06.875Z,71
2018-07-14T14:40:07.468Z,71
2018-07-14T14:45:07.157Z,70
2018-07-14T14:50:06.748Z,70
2018-07-14T14:55:07.262Z,71
2018-07-14T15:00:06.887Z,71
2018-07-14T15:05:07.355Z,70
2018-07-14T15:10:07.203Z,70
2018-07-14T15:15:07.517Z,71
2018-07-14T15:20:07.228Z,71
2018-07-14T15:25:07.003Z,68
2018-07-14T15:30:07.637Z,68
2018-07-14T15:35:07.144Z,67
2018-07-14T15:40:06.922Z,67
2018-07-14T15:45:07.620Z,68
2018-07-14T15:50:07.341Z,68
2018-07-14T15:55:06.949Z,67
2018-07-14T16:00:07.627Z,67
2018-07-14T16:05:07.261Z,67
2018-07-14T16:10:07.048Z,67
2018-07-14T16:15:07.430Z,67
2018-07-14T16:20:07.143Z,67
2018-07-14T16:25:07.704Z,66
2018-07-14T16:30:07.241Z,66
2018-07-14T16:35:07.743Z,66
2018-07-14T16:40:07.210Z,66
2018-07-14T16:45:07.738Z,67
2018-07-14T16:50:07.327Z,67
2018-07-14T16:55:07.136Z,67
2018-07-14T17:00:07.797Z,67
2018-07-14T17:05:07.410Z,67
2018-07-14T17:10:07.096Z,67
2018-07-14T17:15:07.235Z,67
2018-07-14T17:20:07.814Z,67
2018-07-14T17:25:07.559Z,68
2018-07-14T17:30:07.096Z,68
2018-07-14T17:35:06.937Z,68
2018-07-14T17:40:07.562Z,68
2018-07-14T17:45:07.243Z,69
2018-07-14T17:50:07.781Z,69
2018-07-14T17:55:07.411Z,69
2018-07-14T18:00:06.995Z,69
2018-07-14T18:05:07.727Z,69
2018-07-14T18:10:07.424Z,69
2018-07-14T18:15:07.612Z,69
2018-07-14T18:20:07.145Z,69
2018-07-14T18:25:07.681Z,69
2018-07-14T18:30:07.297Z,69
2018-07-14T18:35:07.972Z,70
2018-07-14T18:40:07.589Z,70
2018-07-14T18:45:07.418Z,70
2018-07-14T18:50:07.096Z,70
2018-07-14T18:55:07.697Z,71
2018-07-14T19:00:07.364Z,71
2018-07-14T19:05:07.571Z,71
2018-07-14T19:10:07.359Z,71
2018-07-14T19:15:07.836Z,72
2018-07-14T19:20:07.567Z,72
2018-07-14T19:25:08.071Z,72
2018-07-14T19:30:07.694Z,72
2018-07-14T19:35:07.284Z,73
2018-07-14T19:40:07.828Z,73
2018-07-14T19:45:07.373Z,73
2018-07-14T19:50:08.004Z,73
2018-07-14T19:55:07.957Z,74
2018-07-14T20:00:07.674Z,74
2018-07-14T20:05:07.390Z,74
2018-07-14T20:10:08.141Z,74
2018-07-14T20:15:07.103Z,75
2018-07-14T20:20:07.758Z,75
2018-07-14T20:25:07.340Z,75
2018-07-14T20:30:08.045Z,75
2018-07-14T20:35:07.682Z,75
2018-07-14T20:40:07.259Z,75
2018-07-14T20:45:07.822Z,76
2018-07-14T20:50:07.312Z,76
2018-07-14T20:55:07.373Z,76
2018-07-14T21:00:07.848Z,76
2018-07-14T21:05:07.870Z,77
2018-07-14T21:10:07.458Z,77
2018-07-14T21:15:07.552Z,77
2018-07-14T21:20:08.130Z,77
2018-07-14T21:25:07.860Z,77
2018-07-14T21:30:07.423Z,77
2018-07-14T21:35:07.968Z,77
2018-07-14T21:40:07.641Z,77
2018-07-14T21:45:07.412Z,77
2018-07-14T21:50:07.988Z,77
2018-07-14T21:55:07.560Z,77
2018-07-14T22:00:08.080Z,77
2018-07-14T22:05:07.875Z,78
2018-07-14T22:10:07.754Z,78
2018-07-14T22:15:07.716Z,78
2018-07-14T22:20:07.346Z,78
2018-07-14T22:25:07.909Z,78
2018-07-14T22:30:07.497Z,78
2018-07-14T22:35:08.175Z,79
2018-07-14T22:40:07.704Z,79
2018-07-14T22:45:07.576Z,79
2018-07-14T22:50:08.211Z,79
2018-07-14T22:55:07.796Z,80
2018-07-14T23:00:07.353Z,80
2018-07-14T23:05:07.912Z,80
2018-07-14T23:10:07.635Z,80
2018-07-14T23:15:07.616Z,80
2018-07-14T23:20:08.118Z,80
2018-07-14T23:25:07.581Z,81
2018-07-14T23:30:08.124Z,81
2018-07-14T23:35:07.670Z,82
2018-07-14T23:40:08.189Z,82
2018-07-14T23:45:07.718Z,82
2018-07-14T23:50:08.278Z,82
2018-07-14T23:55:07.825Z,83
